Time;durP1;ratioP1;P1;durP2;ratioP2;P2;SDS_P1;SDS_P2;PMS_P1;PMS_P2;Temp;Humidity;BMP_temperature;BMP_pressure;BME280_temperature;BME280_humidity;BME280_pressure;Samples;Min_cycle;Max_cycle;Signal;HPM_P1;HPM_P2
2021/05/25 00:01:15;;;;;;;2.08;1.20;;;;;;;;;;5109835;28;20448;-73
2021/05/25 00:03:41;;;;;;;2.55;1.40;;;;;;;;;;5108977;28;20028;-74
2021/05/25 00:06:08;;;;;;;2.90;1.13;;;;;;;;;;5110391;28;20055;-74
2021/05/25 00:08:34;;;;;;;7.43;1.73;;;;;;;;;;5109706;28;20032;-74
2021/05/25 00:11:00;;;;;;;4.03;1.20;;;;;;;;;;5110056;28;20077;-74
2021/05/25 00:13:26;;;;;;;2.15;1.17;;;;;;;;;;5109977;28;20039;-74
2021/05/25 00:18:08;;;;;;;1.98;1.25;;;;;;;;;;5130817;27;20821;-72
2021/05/25 00:20:34;;;;;;;3.72;1.58;;;;;;;;;;5130988;28;20104;-73
2021/05/25 00:24:12;;;;;;;3.10;1.30;;;;;;;;;;5110466;27;20505;-72
2021/05/25 00:26:38;;;;;;;6.18;1.45;;;;;;;;;;5109343;28;20503;-72
2021/05/25 00:29:05;;;;;;;3.38;1.30;;;;;;;;;;5110054;28;20030;-73
2021/05/25 00:31:41;;;;;;;2.38;1.50;;;;;;;;;;5110390;27;20776;-72
2021/05/25 00:34:08;;;;;;;3.75;1.38;;;;;;;;;;5110524;28;20035;-73
2021/05/25 00:36:37;;;;;;;3.30;1.67;;;;;;;;;;5125653;28;20433;-73
2021/05/25 00:39:04;;;;;;;2.85;1.52;;;;;;;;;;5126225;28;20027;-73
2021/05/25 00:41:30;;;;;;;3.80;1.70;;;;;;;;;;5110356;28;20498;-73
2021/05/25 00:43:57;;;;;;;5.07;1.90;;;;;;;;;;5109795;28;20048;-73
2021/05/25 00:46:23;;;;;;;6.13;1.38;;;;;;;;;;5110414;28;20068;-73
2021/05/25 00:48:49;;;;;;;3.95;1.40;;;;;;;;;;5126052;28;20023;-73
2021/05/25 00:51:15;;;;;;;2.65;1.48;;;;;;;;;;5109697;28;20032;-73
2021/05/25 00:53:42;;;;;;;3.33;1.30;;;;;;;;;;5125934;28;20024;-73
2021/05/25 00:56:08;;;;;;;4.63;1.70;;;;;;;;;;5110070;28;20031;-73
2021/05/25 00:58:35;;;;;;;2.55;1.25;;;;;;;;;;5109576;28;20023;-74
2021/05/25 01:01:04;;;;;;;5.40;1.73;;;;;;;;;;5109938;28;20380;-73
2021/05/25 01:05:24;;;;;;;3.40;1.55;;;;;;;;;;5110121;27;20473;-72
2021/05/25 01:07:50;;;;;;;6.90;2.08;;;;;;;;;;5110663;28;20038;-72
2021/05/25 01:10:22;;;;;;;3.10;1.45;;;;;;;;;;5110261;28;20016;-73
2021/05/25 01:12:55;;;;;;;7.18;1.45;;;;;;;;;;5125703;28;20518;-73
2021/05/25 01:15:22;;;;;;;4.10;1.77;;;;;;;;;;5110312;28;20512;-73
2021/05/25 01:17:48;;;;;;;2.50;1.30;;;;;;;;;;5126028;28;20054;-72
2021/05/25 01:20:15;;;;;;;3.40;1.23;;;;;;;;;;5109819;28;20077;-72
2021/05/25 01:22:42;;;;;;;5.85;1.90;;;;;;;;;;5110457;28;20019;-72
2021/05/25 01:25:09;;;;;;;8.77;1.20;;;;;;;;;;5109831;28;20032;-72
2021/05/25 01:27:35;;;;;;;2.95;1.33;;;;;;;;;;5126085;28;20016;-72
2021/05/25 01:30:01;;;;;;;5.95;1.98;;;;;;;;;;5110092;28;20061;-72
2021/05/25 01:32:27;;;;;;;4.97;1.67;;;;;;;;;;5109605;28;20020;-73
2021/05/25 01:34:54;;;;;;;3.70;1.40;;;;;;;;;;5109930;28;20028;-73
2021/05/25 01:40:52;;;;;;;2.95;1.63;;;;;;;;;;5069608;28;20407;-72
2021/05/25 01:43:18;;;;;;;2.10;1.20;;;;;;;;;;5068659;28;20040;-72
2021/05/25 01:45:44;;;;;;;3.13;1.10;;;;;;;;;;5070121;28;20021;-72
2021/05/25 01:48:11;;;;;;;2.90;1.63;;;;;;;;;;5069446;28;20108;-72
2021/05/25 01:50:38;;;;;;;3.13;1.88;;;;;;;;;;5069767;28;20056;-72
2021/05/25 01:53:09;;;;;;;2.80;1.58;;;;;;;;;;5069774;28;20103;-72
2021/05/25 01:55:43;;;;;;;3.05;1.67;;;;;;;;;;5069937;28;20017;-73
2021/05/25 01:58:16;;;;;;;3.70;1.88;;;;;;;;;;5069746;28;20027;-73
2021/05/25 02:00:46;;;;;;;5.75;1.50;;;;;;;;;;5069137;28;20036;-72
2021/05/25 02:03:13;;;;;;;3.40;1.63;;;;;;;;;;5068232;28;20025;-72
2021/05/25 02:05:39;;;;;;;4.70;1.60;;;;;;;;;;5068402;28;20525;-72
2021/05/25 02:08:07;;;;;;;2.92;1.50;;;;;;;;;;5067848;28;20089;-72
2021/05/25 02:10:36;;;;;;;4.65;1.17;;;;;;;;;;5068070;28;20017;-72
2021/05/25 02:13:12;;;;;;;2.00;1.25;;;;;;;;;;5069255;28;20102;-72
2021/05/25 02:15:39;;;;;;;3.05;1.40;;;;;;;;;;5068983;28;20249;-72
2021/05/25 02:19:56;;;;;;;4.45;1.50;;;;;;;;;;5110504;27;20773;-72
2021/05/25 02:22:22;;;;;;;3.83;1.77;;;;;;;;;;5108878;28;20400;-72
2021/05/25 02:24:48;;;;;;;4.70;1.95;;;;;;;;;;5109342;28;20391;-72
2021/05/25 02:27:14;;;;;;;3.17;1.50;;;;;;;;;;5109102;28;20015;-72
2021/05/25 02:29:40;;;;;;;6.70;2.05;;;;;;;;;;5110238;28;20019;-72
2021/05/25 02:32:07;;;;;;;2.33;1.27;;;;;;;;;;5110286;28;20447;-72
2021/05/25 02:34:33;;;;;;;4.05;1.77;;;;;;;;;;5110192;28;20024;-72
2021/05/25 02:36:59;;;;;;;3.92;1.45;;;;;;;;;;5109825;28;20098;-72
2021/05/25 02:41:28;;;;;;;3.30;1.85;;;;;;;;;;5090528;27;20506;-72
2021/05/25 02:43:54;;;;;;;3.90;1.70;;;;;;;;;;5089818;28;20028;-72
2021/05/25 02:46:20;;;;;;;5.20;1.88;;;;;;;;;;5090263;28;20028;-72
2021/05/25 02:48:47;;;;;;;6.32;1.80;;;;;;;;;;5090036;28;20033;-72
2021/05/25 02:51:13;;;;;;;3.88;1.77;;;;;;;;;;5088302;28;20055;-72
2021/05/25 02:53:39;;;;;;;6.47;2.10;;;;;;;;;;5090275;28;20042;-72
2021/05/25 02:57:13;;;;;;;3.92;1.83;;;;;;;;;;5110121;27;20872;-72
2021/05/25 02:59:40;;;;;;;3.40;1.80;;;;;;;;;;5109156;28;20119;-73
2021/05/25 03:02:06;;;;;;;3.88;1.83;;;;;;;;;;5109146;28;20024;-72
2021/05/25 03:04:43;;;;;;;4.20;2.17;;;;;;;;;;5110372;27;20458;-72
2021/05/25 03:07:30;;;;;;;4.65;2.28;;;;;;;;;;5110629;27;20904;-72
2021/05/25 03:09:56;;;;;;;5.85;2.40;;;;;;;;;;5110478;28;20024;-72
2021/05/25 03:12:22;;;;;;;4.70;2.15;;;;;;;;;;5110001;28;20028;-72
2021/05/25 03:14:48;;;;;;;5.22;2.40;;;;;;;;;;5110430;28;20434;-72
2021/05/25 03:17:15;;;;;;;5.13;2.20;;;;;;;;;;5110266;28;20384;-72
2021/05/25 03:19:41;;;;;;;6.32;1.85;;;;;;;;;;5108759;28;20023;-72
2021/05/25 03:22:07;;;;;;;4.05;1.92;;;;;;;;;;5110170;28;20024;-72
2021/05/25 03:24:33;;;;;;;4.57;1.63;;;;;;;;;;5110271;28;20094;-72
2021/05/25 03:27:00;;;;;;;4.65;1.60;;;;;;;;;;5108781;28;20091;-72
2021/05/25 03:30:20;;;;;;;4.75;2.33;;;;;;;;;;5069854;28;21000;-72
2021/05/25 03:32:46;;;;;;;3.63;2.33;;;;;;;;;;5069497;28;20044;-72
2021/05/25 03:40:35;;;;;;;4.30;2.17;;;;;;;;;;5130582;27;20309;-73
2021/05/25 03:45:59;;;;;;;10.55;2.85;;;;;;;;;;5110251;27;20384;-72
2021/05/25 03:48:25;;;;;;;6.45;2.40;;;;;;;;;;5110458;28;20391;-73
2021/05/25 03:53:39;;;;;;;6.25;2.90;;;;;;;;;;5069454;28;20915;-72
2021/05/25 03:58:50;;;;;;;4.22;2.30;;;;;;;;;;5069915;28;20112;-73
2021/05/25 04:01:22;;;;;;;11.75;2.35;;;;;;;;;;5069619;28;20485;-73
2021/05/25 04:03:49;;;;;;;6.05;2.03;;;;;;;;;;5070019;28;20021;-72
2021/05/25 04:06:16;;;;;;;4.57;1.65;;;;;;;;;;5069959;28;20077;-72
2021/05/25 04:09:30;;;;;;;3.90;2.00;;;;;;;;;;5069954;28;20403;-73
2021/05/25 04:11:57;;;;;;;8.27;2.63;;;;;;;;;;5069919;28;20040;-73
2021/05/25 04:14:23;;;;;;;5.10;2.08;;;;;;;;;;5069434;28;20017;-73
2021/05/25 04:21:26;;;;;;;4.57;1.65;;;;;;;;;;5110157;27;20839;-72
2021/05/25 04:23:53;;;;;;;3.75;2.03;;;;;;;;;;5109141;28;20032;-72
2021/05/25 04:26:19;;;;;;;9.75;2.42;;;;;;;;;;5110582;28;20119;-72
2021/05/25 04:28:45;;;;;;;2.88;1.98;;;;;;;;;;5110123;28;20027;-72
2021/05/25 04:31:11;;;;;;;5.03;2.42;;;;;;;;;;5109043;28;20027;-73
2021/05/25 04:33:37;;;;;;;3.53;2.22;;;;;;;;;;5110371;28;20019;-73
2021/05/25 04:36:04;;;;;;;3.20;2.00;;;;;;;;;;5109893;28;20476;-73
2021/05/25 04:38:30;;;;;;;4.68;2.25;;;;;;;;;;5108923;28;20054;-73
2021/05/25 04:40:56;;;;;;;5.28;2.20;;;;;;;;;;5108786;28;20038;-72
2021/05/25 04:43:50;;;;;;;5.38;2.47;;;;;;;;;;5110170;27;20467;-72
2021/05/25 04:46:29;;;;;;;5.85;2.20;;;;;;;;;;5110714;27;20527;-72
2021/05/25 04:48:55;;;;;;;7.28;2.08;;;;;;;;;;5110669;28;20103;-72
2021/05/25 04:51:21;;;;;;;3.10;2.20;;;;;;;;;;5108904;28;20020;-72
2021/05/25 04:54:02;;;;;;;4.40;2.28;;;;;;;;;;5110477;27;20378;-73
2021/05/25 04:56:28;;;;;;;5.60;2.25;;;;;;;;;;5108827;28;20027;-73
2021/05/25 04:58:54;;;;;;;6.07;2.72;;;;;;;;;;5110381;28;20494;-73
2021/05/25 05:01:21;;;;;;;4.15;2.42;;;;;;;;;;5110465;28;20086;-73
2021/05/25 05:03:48;;;;;;;7.45;2.72;;;;;;;;;;5108740;28;20077;-70
2021/05/25 05:06:14;;;;;;;8.90;3.55;;;;;;;;;;5110582;28;20054;-71
2021/05/25 05:09:46;;;;;;;10.98;3.45;;;;;;;;;;5110595;27;20986;-71
2021/05/25 05:12:12;;;;;;;9.75;3.65;;;;;;;;;;5110075;28;20492;-72
2021/05/25 05:14:38;;;;;;;4.25;2.33;;;;;;;;;;5110344;28;20069;-71
2021/05/25 05:17:04;;;;;;;5.68;2.38;;;;;;;;;;5107359;28;20103;-69
2021/05/25 05:19:31;;;;;;;4.82;2.80;;;;;;;;;;5109190;28;20492;-71
2021/05/25 05:21:57;;;;;;;5.32;2.45;;;;;;;;;;5116716;28;20710;-72
2021/05/25 05:24:23;;;;;;;5.15;2.55;;;;;;;;;;5087628;28;20021;-71
2021/05/25 05:26:49;;;;;;;4.00;2.35;;;;;;;;;;5089977;28;20059;-71
2021/05/25 05:29:15;;;;;;;9.02;3.35;;;;;;;;;;5089180;28;20045;-70
2021/05/25 05:31:42;;;;;;;6.25;2.53;;;;;;;;;;5087975;28;20024;-71
2021/05/25 05:36:00;;;;;;;5.70;2.33;;;;;;;;;;5089430;27;20400;-72
2021/05/25 05:40:27;;;;;;;5.45;2.47;;;;;;;;;;5109868;27;20389;-74
2021/05/25 05:42:54;;;;;;;9.38;2.65;;;;;;;;;;5110378;28;20032;-75
2021/05/25 05:46:06;;;;;;;4.28;2.47;;;;;;;;;;5110099;27;20412;-74
2021/05/25 05:48:32;;;;;;;4.85;2.42;;;;;;;;;;5097860;28;20035;-73
2021/05/25 05:50:59;;;;;;;3.25;1.98;;;;;;;;;;5090042;28;20027;-80
2021/05/25 05:53:25;;;;;;;7.15;2.30;;;;;;;;;;5089546;28;20052;-75
2021/05/25 05:55:51;;;;;;;10.13;2.30;;;;;;;;;;5088599;28;20048;-77
2021/05/25 05:58:18;;;;;;;8.95;3.00;;;;;;;;;;5090112;28;20051;-77
2021/05/25 06:00:44;;;;;;;4.22;2.40;;;;;;;;;;5089152;28;20439;-74
2021/05/25 06:03:11;;;;;;;3.78;2.20;;;;;;;;;;5089622;28;20051;-75
2021/05/25 06:05:37;;;;;;;4.45;2.17;;;;;;;;;;5089513;28;20507;-74
2021/05/25 06:08:08;;;;;;;4.47;2.47;;;;;;;;;;5089644;28;20107;-73
2021/05/25 06:10:36;;;;;;;6.15;2.42;;;;;;;;;;5088924;28;20032;-71
2021/05/25 06:14:31;;;;;;;6.90;2.45;;;;;;;;;;5109872;27;20458;-73
2021/05/25 06:16:59;;;;;;;5.07;1.95;;;;;;;;;;5110366;28;20036;-78
2021/05/25 06:19:25;;;;;;;5.68;2.20;;;;;;;;;;5110511;28;20016;-76
2021/05/25 06:21:51;;;;;;;7.47;2.28;;;;;;;;;;5110225;28;20058;-76
2021/05/25 06:24:34;;;;;;;6.70;2.40;;;;;;;;;;5111096;27;20393;-76
2021/05/25 06:27:00;;;;;;;15.02;3.00;;;;;;;;;;5111017;28;20476;-77
2021/05/25 06:29:26;;;;;;;4.32;2.50;;;;;;;;;;5109626;28;20434;-78
2021/05/25 06:31:59;;;;;;;11.77;2.50;;;;;;;;;;5111009;28;20032;-78
2021/05/25 06:34:25;;;;;;;4.65;2.50;;;;;;;;;;5111035;28;20468;-78
2021/05/25 06:36:51;;;;;;;8.55;2.47;;;;;;;;;;5110515;28;20058;-78
2021/05/25 06:39:17;;;;;;;9.93;2.30;;;;;;;;;;5111772;28;20125;-78
2021/05/25 06:41:43;;;;;;;7.22;2.42;;;;;;;;;;5107703;28;20059;-76
2021/05/25 06:44:10;;;;;;;5.70;2.13;;;;;;;;;;5105934;28;20032;-77
2021/05/25 06:46:36;;;;;;;6.78;2.20;;;;;;;;;;5109057;28;20016;-75
2021/05/25 06:49:02;;;;;;;5.07;2.45;;;;;;;;;;5109405;28;20023;-74
2021/05/25 06:51:28;;;;;;;5.43;2.20;;;;;;;;;;5109640;28;20020;-74
2021/05/25 06:53:54;;;;;;;3.85;2.22;;;;;;;;;;5109508;28;20034;-73
2021/05/25 06:56:21;;;;;;;7.75;2.25;;;;;;;;;;5109227;28;20470;-78
2021/05/25 06:58:47;;;;;;;4.97;2.28;;;;;;;;;;5109786;28;20112;-77
2021/05/25 07:03:07;;;;;;;9.48;2.40;;;;;;;;;;5130519;27;20313;-76
2021/05/25 07:05:33;;;;;;;5.82;2.75;;;;;;;;;;5110423;28;20020;-72
2021/05/25 07:08:01;;;;;;;4.53;2.25;;;;;;;;;;5092103;28;20024;-78
2021/05/25 07:10:27;;;;;;;9.23;2.58;;;;;;;;;;5109715;28;20107;-73
2021/05/25 07:12:53;;;;;;;4.35;2.35;;;;;;;;;;5110033;28;20208;-74
2021/05/25 07:16:11;;;;;;;5.85;2.10;;;;;;;;;;5110406;27;20912;-78
2021/05/25 07:18:37;;;;;;;6.43;2.03;;;;;;;;;;5110029;28;20024;-79
2021/05/25 07:21:03;;;;;;;6.88;2.20;;;;;;;;;;5110537;28;20039;-76
2021/05/25 07:23:30;;;;;;;6.25;2.30;;;;;;;;;;5110523;28;20059;-75
2021/05/25 07:25:56;;;;;;;6.72;2.53;;;;;;;;;;5110098;28;20024;-74
2021/05/25 07:28:44;;;;;;;4.03;2.47;;;;;;;;;;5110875;27;20412;-74
2021/05/25 07:31:10;;;;;;;5.32;2.63;;;;;;;;;;5109967;28;20035;-74
2021/05/25 07:33:36;;;;;;;5.20;2.17;;;;;;;;;;5110449;28;20531;-76
2021/05/25 07:36:03;;;;;;;5.45;2.20;;;;;;;;;;5108996;28;20046;-74
2021/05/25 07:38:29;;;;;;;4.82;2.05;;;;;;;;;;5110268;28;20096;-76
2021/05/25 07:40:55;;;;;;;4.85;2.05;;;;;;;;;;5108944;28;20391;-74
2021/05/25 07:43:22;;;;;;;5.05;1.63;;;;;;;;;;5110013;28;20503;-75
2021/05/25 07:45:48;;;;;;;6.07;2.58;;;;;;;;;;5109489;28;20418;-73
2021/05/25 07:48:14;;;;;;;4.85;2.30;;;;;;;;;;5108791;28;20035;-73
2021/05/25 07:50:41;;;;;;;6.90;2.45;;;;;;;;;;5108636;28;20495;-75
2021/05/25 07:53:07;;;;;;;4.03;1.98;;;;;;;;;;5109220;28;20019;-73
2021/05/25 07:55:33;;;;;;;6.93;2.10;;;;;;;;;;5108356;28;20020;-75
2021/05/25 07:58:00;;;;;;;3.13;1.67;;;;;;;;;;5109196;28;20046;-74
2021/05/25 08:00:27;;;;;;;4.85;2.20;;;;;;;;;;5109473;28;20034;-75
2021/05/25 08:02:57;;;;;;;3.55;1.77;;;;;;;;;;5107731;28;20028;-75
2021/05/25 08:05:25;;;;;;;2.13;1.50;;;;;;;;;;5108455;28;20016;-74
2021/05/25 08:07:51;;;;;;;6.18;1.80;;;;;;;;;;5108498;28;20043;-74
2021/05/25 08:10:18;;;;;;;3.60;1.80;;;;;;;;;;5107713;28;20361;-74
2021/05/25 08:12:44;;;;;;;5.32;2.00;;;;;;;;;;5108434;28;20560;-74
2021/05/25 08:15:12;;;;;;;4.63;2.22;;;;;;;;;;5106555;28;20133;-73
2021/05/25 08:17:52;;;;;;;4.40;2.35;;;;;;;;;;5109078;28;20035;-74
2021/05/25 08:21:01;;;;;;;6.28;2.50;;;;;;;;;;5109090;27;20389;-72
2021/05/25 08:23:27;;;;;;;10.65;2.72;;;;;;;;;;5109880;28;20038;-70
2021/05/25 08:25:54;;;;;;;7.20;2.30;;;;;;;;;;5110071;28;20069;-69
2021/05/25 08:28:20;;;;;;;4.05;2.03;;;;;;;;;;5108698;28;20024;-68
2021/05/25 08:30:46;;;;;;;4.60;1.92;;;;;;;;;;5109305;28;20468;-67
2021/05/25 08:33:13;;;;;;;3.60;1.73;;;;;;;;;;5109866;28;20069;-69
2021/05/25 08:35:39;;;;;;;6.13;2.17;;;;;;;;;;5107824;28;20479;-71
2021/05/25 08:38:07;;;;;;;4.55;2.28;;;;;;;;;;5108667;28;20111;-70
2021/05/25 08:40:34;;;;;;;3.85;1.90;;;;;;;;;;5109252;28;20088;-70
2021/05/25 08:43:00;;;;;;;3.22;1.90;;;;;;;;;;5109350;28;20047;-69
2021/05/25 08:45:27;;;;;;;6.55;2.22;;;;;;;;;;5109792;28;20028;-69
2021/05/25 08:47:54;;;;;;;5.53;2.00;;;;;;;;;;5106474;28;20019;-69
2021/05/25 08:50:25;;;;;;;5.20;1.85;;;;;;;;;;5108494;28;20019;-68
2021/05/25 08:52:52;;;;;;;4.85;1.90;;;;;;;;;;5109696;28;20495;-69
2021/05/25 08:55:20;;;;;;;4.45;2.00;;;;;;;;;;5105891;28;20415;-68
2021/05/25 08:57:47;;;;;;;8.05;2.42;;;;;;;;;;5107350;28;20023;-68
2021/05/25 09:00:13;;;;;;;3.80;2.03;;;;;;;;;;5108997;28;20528;-68
2021/05/25 09:02:39;;;;;;;6.30;2.30;;;;;;;;;;5108528;28;20027;-67
2021/05/25 09:05:08;;;;;;;4.72;1.90;;;;;;;;;;5107589;28;20027;-68
2021/05/25 09:07:39;;;;;;;5.50;3.28;;;;;;;;;;5108336;28;20020;-68
2021/05/25 09:10:10;;;;;;;5.85;2.53;;;;;;;;;;5108743;28;20054;-70
2021/05/25 09:12:40;;;;;;;4.07;2.08;;;;;;;;;;5108700;28;20027;-71
2021/05/25 09:15:07;;;;;;;8.88;2.47;;;;;;;;;;5109227;28;20027;-70
2021/05/25 09:17:33;;;;;;;4.55;2.00;;;;;;;;;;5108620;28;20027;-68
2021/05/25 09:20:00;;;;;;;6.05;2.40;;;;;;;;;;5104344;28;20135;-73
2021/05/25 09:22:29;;;;;;;4.30;2.15;;;;;;;;;;5106441;28;20107;-74
2021/05/25 09:24:56;;;;;;;4.53;2.25;;;;;;;;;;5106958;28;20024;-73
2021/05/25 09:27:29;;;;;;;5.05;2.53;;;;;;;;;;5104876;28;20379;-75
2021/05/25 09:30:09;;;;;;;4.15;2.13;;;;;;;;;;5105291;28;20103;-74
2021/05/25 09:32:38;;;;;;;4.03;2.10;;;;;;;;;;5092694;28;20028;-77
2021/05/25 09:35:06;;;;;;;3.70;2.33;;;;;;;;;;5093780;28;20035;-75
2021/05/25 09:37:32;;;;;;;4.70;2.00;;;;;;;;;;5093769;28;20094;-75
2021/05/25 09:40:04;;;;;;;4.20;2.20;;;;;;;;;;5093577;28;20043;-75
2021/05/25 09:42:30;;;;;;;4.95;1.98;;;;;;;;;;5094899;28;20069;-72
2021/05/25 09:44:58;;;;;;;3.15;2.05;;;;;;;;;;5094495;28;20062;-74
2021/05/25 09:47:34;;;;;;;5.80;1.67;;;;;;;;;;5095218;28;20016;-73
2021/05/25 09:50:01;;;;;;;4.55;2.00;;;;;;;;;;5091713;28;20028;-72
2021/05/25 09:52:27;;;;;;;3.50;1.88;;;;;;;;;;5092875;28;20028;-72
2021/05/25 09:55:07;;;;;;;5.85;2.15;;;;;;;;;;5093539;28;20388;-72
2021/05/25 09:57:46;;;;;;;4.97;2.28;;;;;;;;;;5094853;28;20031;-72
2021/05/25 10:00:36;;;;;;;4.32;2.33;;;;;;;;;;5094267;28;20032;-72
2021/05/25 10:03:09;;;;;;;7.05;2.40;;;;;;;;;;5093109;28;20484;-71
2021/05/25 10:05:36;;;;;;;4.50;1.88;;;;;;;;;;5093594;28;20024;-74
2021/05/25 10:08:03;;;;;;;6.70;2.35;;;;;;;;;;5094403;28;20020;-73
2021/05/25 10:10:30;;;;;;;6.80;2.60;;;;;;;;;;5094521;28;20464;-72
2021/05/25 10:12:56;;;;;;;6.07;2.00;;;;;;;;;;5091097;28;20031;-72
2021/05/25 10:15:24;;;;;;;6.05;2.40;;;;;;;;;;5094500;28;20410;-70
2021/05/25 10:18:33;;;;;;;3.63;1.60;;;;;;;;;;5088170;28;20032;-70
2021/05/25 10:20:44;;;;;;;2.75;1.65;;;;;;;;;;5087974;28;20036;-71
2021/05/25 10:23:10;;;;;;;3.38;1.70;;;;;;;;;;5090090;28;20028;-70
2021/05/25 10:25:38;;;;;;;7.68;2.30;;;;;;;;;;5091209;28;20031;-68
2021/05/25 10:28:09;;;;;;;6.07;2.00;;;;;;;;;;5092790;28;20119;-68
2021/05/25 10:30:36;;;;;;;7.80;2.15;;;;;;;;;;5091118;28;20047;-68
2021/05/25 10:33:05;;;;;;;3.88;2.13;;;;;;;;;;5094142;28;20020;-69
2021/05/25 10:35:47;;;;;;;6.03;2.00;;;;;;;;;;5090998;28;20476;-69
2021/05/25 10:38:13;;;;;;;6.22;1.73;;;;;;;;;;5090423;28;20063;-69
2021/05/25 10:40:46;;;;;;;6.25;2.15;;;;;;;;;;5092152;28;20031;-70
2021/05/25 10:43:31;;;;;;;7.30;2.30;;;;;;;;;;5090584;28;20020;-67
2021/05/25 10:46:12;;;;;;;6.15;2.40;;;;;;;;;;5087950;28;20504;-67
2021/05/25 10:48:55;;;;;;;7.72;2.22;;;;;;;;;;5091314;28;20024;-67
2021/05/25 10:51:21;;;;;;;3.53;2.05;;;;;;;;;;5093745;28;20393;-67
2021/05/25 10:54:07;;;;;;;8.00;2.55;;;;;;;;;;5091787;28;20032;-68
2021/05/25 10:56:37;;;;;;;5.18;2.40;;;;;;;;;;5093260;28;20031;-67
2021/05/25 10:59:06;;;;;;;7.18;2.20;;;;;;;;;;5092267;28;20087;-67
2021/05/25 11:01:36;;;;;;;3.58;1.92;;;;;;;;;;5093629;28;20024;-67
2021/05/25 11:04:08;;;;;;;4.70;2.20;;;;;;;;;;5092777;28;20028;-67
2021/05/25 11:06:34;;;;;;;5.90;2.00;;;;;;;;;;5093536;28;20024;-67
2021/05/25 11:09:19;;;;;;;3.70;2.05;;;;;;;;;;5090904;28;20208;-67
2021/05/25 11:11:45;;;;;;;7.35;1.77;;;;;;;;;;5092080;28;20012;-67
2021/05/25 11:14:14;;;;;;;4.70;1.80;;;;;;;;;;5091957;28;20039;-67
2021/05/25 11:16:41;;;;;;;5.38;2.30;;;;;;;;;;5091664;28;20024;-67
2021/05/25 11:19:09;;;;;;;5.32;1.63;;;;;;;;;;5092985;28;20155;-67
2021/05/25 11:24:36;;;;;;;4.10;1.60;;;;;;;;;;5092773;28;20385;-67
2021/05/25 11:27:10;;;;;;;2.78;1.80;;;;;;;;;;5093352;28;20102;-67
2021/05/25 11:29:42;;;;;;;3.70;1.80;;;;;;;;;;5093389;28;20024;-68
2021/05/25 11:32:08;;;;;;;;;;;;;;;;;;5091860;28;20016;-67
2021/05/25 11:34:34;;;;;;;3.38;2.00;;;;;;;;;;5093156;28;19930;-68
2021/05/25 11:37:03;;;;;;;3.78;1.92;;;;;;;;;;5093047;28;20385;-68
2021/05/25 11:39:30;;;;;;;3.92;1.50;;;;;;;;;;5091170;28;20032;-68
2021/05/25 11:41:57;;;;;;;5.97;1.88;;;;;;;;;;5092678;28;20027;-68
2021/05/25 11:44:31;;;;;;;4.03;1.85;;;;;;;;;;5092559;28;20016;-68
2021/05/25 11:46:58;;;;;;;5.40;1.95;;;;;;;;;;5091585;28;20035;-68
2021/05/25 11:49:25;;;;;;;3.85;1.77;;;;;;;;;;5092802;28;20035;-68
2021/05/25 11:51:52;;;;;;;5.22;1.60;;;;;;;;;;5092165;28;20023;-68
2021/05/25 11:54:19;;;;;;;4.28;2.10;;;;;;;;;;5092423;28;20473;-68
2021/05/25 11:56:47;;;;;;;5.38;1.80;;;;;;;;;;5091508;28;20024;-68
2021/05/25 11:59:14;;;;;;;7.88;2.25;;;;;;;;;;5092023;28;20032;-68
2021/05/25 12:01:42;;;;;;;3.08;1.65;;;;;;;;;;5091963;28;20039;-68
2021/05/25 12:04:08;;;;;;;3.67;1.67;;;;;;;;;;5092303;28;20531;-68
2021/05/25 12:06:35;;;;;;;2.92;1.60;;;;;;;;;;5092489;28;20043;-68
2021/05/25 12:09:12;;;;;;;5.90;2.03;;;;;;;;;;5092697;28;20681;-68
2021/05/25 12:11:41;;;;;;;4.07;2.10;;;;;;;;;;5092618;28;20480;-69
2021/05/25 12:14:08;;;;;;;3.90;2.05;;;;;;;;;;5091102;28;20050;-68
2021/05/25 12:16:35;;;;;;;5.88;2.00;;;;;;;;;;5092452;28;20417;-68
2021/05/25 12:19:01;;;;;;;7.90;2.13;;;;;;;;;;5092023;28;20063;-68
2021/05/25 12:21:28;;;;;;;10.93;2.38;;;;;;;;;;5091717;28;20077;-68
2021/05/25 12:23:54;;;;;;;4.20;1.50;;;;;;;;;;5090871;28;20020;-68
2021/05/25 12:26:23;;;;;;;4.35;2.00;;;;;;;;;;5092198;28;20043;-68
2021/05/25 12:28:50;;;;;;;8.85;2.88;;;;;;;;;;5091134;28;20103;-68
2021/05/25 12:31:17;;;;;;;5.78;2.30;;;;;;;;;;5092408;28;20020;-68
2021/05/25 12:33:45;;;;;;;4.05;2.60;;;;;;;;;;5091852;28;20066;-68
2021/05/25 12:36:13;;;;;;;4.80;2.50;;;;;;;;;;5090128;28;20024;-68
2021/05/25 12:38:39;;;;;;;7.82;2.20;;;;;;;;;;5097056;28;20074;-69
2021/05/25 12:41:05;;;;;;;7.63;2.08;;;;;;;;;;5103934;28;20031;-68
2021/05/25 12:43:37;;;;;;;7.47;2.22;;;;;;;;;;5112843;28;20032;-68
2021/05/25 12:46:10;;;;;;;4.05;1.75;;;;;;;;;;5111367;28;20020;-68
2021/05/25 12:48:37;;;;;;;7.18;2.20;;;;;;;;;;5112345;28;20030;-69
2021/05/25 12:51:04;;;;;;;5.78;1.50;;;;;;;;;;5111216;28;20028;-69
2021/05/25 12:53:31;;;;;;;5.25;1.90;;;;;;;;;;5112078;28;20072;-69
2021/05/25 12:56:03;;;;;;;4.25;1.77;;;;;;;;;;5111865;28;20039;-69
2021/05/25 12:58:40;;;;;;;7.07;1.98;;;;;;;;;;5112439;28;20020;-68
2021/05/25 13:01:18;;;;;;;4.20;1.55;;;;;;;;;;5112454;28;20027;-68
2021/05/25 13:03:44;;;;;;;6.25;1.80;;;;;;;;;;5110900;28;20019;-69
2021/05/25 13:06:12;;;;;;;6.28;1.58;;;;;;;;;;5112566;28;20020;-68
2021/05/25 13:08:39;;;;;;;4.43;1.58;;;;;;;;;;5115964;28;20535;-68
2021/05/25 13:11:09;;;;;;;5.28;2.22;;;;;;;;;;5116260;28;20110;-68
2021/05/25 13:13:39;;;;;;;3.65;1.80;;;;;;;;;;5116181;28;20020;-68
2021/05/25 13:16:05;;;;;;;4.45;1.80;;;;;;;;;;5115967;28;20020;-68
2021/05/25 13:18:39;;;;;;;4.50;1.83;;;;;;;;;;5114357;28;20084;-68
2021/05/25 13:21:08;;;;;;;5.88;2.10;;;;;;;;;;5116091;28;20044;-68
2021/05/25 13:23:34;;;;;;;3.80;1.73;;;;;;;;;;5114421;28;20019;-68
2021/05/25 13:26:17;;;;;;;5.70;1.90;;;;;;;;;;5116370;28;20088;-68
2021/05/25 13:28:58;;;;;;;8.27;1.92;;;;;;;;;;5114972;28;20019;-69
2021/05/25 13:31:25;;;;;;;4.47;1.80;;;;;;;;;;5115675;28;20019;-68
2021/05/25 13:33:52;;;;;;;5.05;1.73;;;;;;;;;;5114715;28;20019;-67
2021/05/25 13:36:19;;;;;;;8.32;2.38;;;;;;;;;;5114577;28;20023;-68
2021/05/25 13:38:46;;;;;;;5.75;1.70;;;;;;;;;;5115505;28;20024;-69
2021/05/25 13:41:19;;;;;;;6.13;1.98;;;;;;;;;;5115870;28;20110;-68
2021/05/25 13:43:49;;;;;;;6.97;2.33;;;;;;;;;;5115518;28;20019;-68
2021/05/25 13:46:16;;;;;;;4.35;1.92;;;;;;;;;;5115920;28;20065;-68
2021/05/25 13:48:43;;;;;;;3.47;1.48;;;;;;;;;;5115681;28;20425;-68
2021/05/25 13:51:09;;;;;;;4.70;1.92;;;;;;;;;;5113958;28;20023;-68
2021/05/25 13:53:36;;;;;;;5.18;1.77;;;;;;;;;;5115433;28;20050;-68
2021/05/25 13:56:04;;;;;;;4.72;2.22;;;;;;;;;;5115500;28;20108;-68
2021/05/25 13:58:32;;;;;;;8.52;2.47;;;;;;;;;;5113777;28;20646;-68
2021/05/25 14:03:43;;;;;;;5.72;2.10;;;;;;;;;;5115713;28;20026;-69
2021/05/25 14:06:09;;;;;;;2.67;1.40;;;;;;;;;;5115270;28;20072;-69
2021/05/25 14:08:35;;;;;;;5.78;1.65;;;;;;;;;;5115527;28;20077;-69
2021/05/25 14:11:02;;;;;;;8.70;1.88;;;;;;;;;;5113808;28;20432;-67
2021/05/25 14:13:32;;;;;;;8.93;2.17;;;;;;;;;;5113466;28;20493;-67
2021/05/25 14:15:58;;;;;;;4.13;2.00;;;;;;;;;;5115012;28;20032;-68
2021/05/25 14:18:25;;;;;;;7.10;1.92;;;;;;;;;;5114837;28;20037;-69
2021/05/25 14:20:51;;;;;;;4.88;1.67;;;;;;;;;;5114409;28;20056;-68
2021/05/25 14:23:18;;;;;;;3.40;1.50;;;;;;;;;;5113754;28;20051;-68
2021/05/25 14:25:44;;;;;;;6.50;1.73;;;;;;;;;;5115065;28;20043;-68
2021/05/25 14:28:11;;;;;;;7.35;2.05;;;;;;;;;;5114669;28;20028;-68
2021/05/25 14:30:37;;;;;;;14.38;1.70;;;;;;;;;;5114704;28;20020;-69
2021/05/25 14:33:04;;;;;;;8.18;1.50;;;;;;;;;;5113011;28;20391;-68
2021/05/25 14:35:30;;;;;;;4.53;2.03;;;;;;;;;;5114636;28;20016;-67
2021/05/25 14:37:57;;;;;;;7.05;2.28;;;;;;;;;;5114588;28;20027;-69
2021/05/25 14:40:23;;;;;;;5.10;2.13;;;;;;;;;;5113925;28;20465;-68
2021/05/25 14:42:51;;;;;;;5.22;1.88;;;;;;;;;;5114459;28;20069;-68
2021/05/25 14:45:17;;;;;;;6.55;2.70;;;;;;;;;;5114887;28;20051;-68
2021/05/25 14:47:43;;;;;;;4.60;1.92;;;;;;;;;;5114068;28;20599;-69
2021/05/25 14:50:26;;;;;;;3.20;1.70;;;;;;;;;;5114281;28;20100;-68
2021/05/25 14:52:55;;;;;;;4.40;1.52;;;;;;;;;;5112996;28;20019;-68
2021/05/25 14:55:23;;;;;;;9.23;1.70;;;;;;;;;;5112496;28;20024;-68
2021/05/25 14:57:49;;;;;;;5.03;1.98;;;;;;;;;;5114209;28;20383;-69
2021/05/25 15:00:19;;;;;;;2.65;1.40;;;;;;;;;;5112868;28;20039;-69
2021/05/25 15:03:29;;;;;;;3.53;1.63;;;;;;;;;;5113673;28;20031;-68
2021/05/25 15:08:04;;;;;;;4.50;1.85;;;;;;;;;;5112915;28;20149;-68
2021/05/25 15:10:31;;;;;;;5.00;2.50;;;;;;;;;;5114074;28;20027;-69
2021/05/25 15:12:57;;;;;;;4.53;1.60;;;;;;;;;;5113949;28;20051;-68
2021/05/25 15:15:24;;;;;;;6.90;2.10;;;;;;;;;;5113450;28;20532;-68
2021/05/25 15:17:50;;;;;;;5.70;2.40;;;;;;;;;;5113841;28;20081;-69
2021/05/25 15:20:18;;;;;;;6.22;2.00;;;;;;;;;;5113561;28;20047;-69
2021/05/25 15:22:44;;;;;;;6.72;2.30;;;;;;;;;;5113329;28;20020;-68
2021/05/25 15:25:11;;;;;;;6.57;2.40;;;;;;;;;;5112444;28;20023;-68
2021/05/25 15:27:37;;;;;;;6.47;2.08;;;;;;;;;;5113979;28;20024;-68
2021/05/25 15:30:05;;;;;;;5.43;2.63;;;;;;;;;;5111622;28;20030;-68
2021/05/25 15:32:31;;;;;;;4.78;1.98;;;;;;;;;;5113606;28;20491;-68
2021/05/25 15:34:58;;;;;;;4.40;1.83;;;;;;;;;;5112110;28;20027;-68
2021/05/25 15:37:24;;;;;;;4.85;2.17;;;;;;;;;;5113010;28;20019;-68
2021/05/25 15:39:50;;;;;;;7.28;2.22;;;;;;;;;;5112092;28;20031;-70
2021/05/25 15:42:16;;;;;;;3.25;1.80;;;;;;;;;;5113433;28;20027;-69